Terminal Aerodrome Forecast
Issued by NWS

Home | Current Version | Previous Version | Text Only | Print | Product List | Glossary On
Versions: 1 2 3 4 5 6 7 8 9 10 11 12 13
000
FTUS43 KMQT 221300 AAA
TAFIWD
TAF AMD
KIWD 221325Z 2213/2312 19012G20KT P6SM BKN025
     FM221500 25015G25KT P6SM BKN020
     FM222200 32014G22KT P6SM SCT025
     FM230200 03007KT P6SM SCT080
      AMD LTD TO CLD VIS AND WIND=

USA.gov is the U.S. government's official web portal to all federal, state and local government web resources and services.